Terminal Aerodrome Forecast
Issued by NWS

Home | Current Version | Previous Version | Graphics & Text | Print | Product List | Glossary Off
Versions: 1 2 3 4 5 6 7 8 9 10 11 12 13 14 15

000
FTUS43 KDDC 261120
TAFHYS
TAF
KHYS 261120Z 2612/2712 13008KT 4SM BR OVC015
     FM261400 13007KT P6SM BKN050
     FM262000 15015G23KT P6SM SCT250
     FM262200 17016G24KT P6SM VCTS SCT250CB
     FM270000 19014KT P6SM VCSH SCT250=

USA.gov is the U.S. government's official web portal to all federal, state and local government web resources and services.